sensor_id;sensor_type;location;lat;lon;timestamp;temperature;humidity
50738;DHT22;36703;48.154;17.126;2024-01-15T00:00:58;4.80;63.10
50738;DHT22;36703;48.154;17.126;2024-01-15T00:04:59;4.60;64.10
50738;DHT22;36703;48.154;17.126;2024-01-15T00:09:01;4.70;61.40
50738;DHT22;36703;48.154;17.126;2024-01-15T00:13:02;4.50;63.00
50738;DHT22;36703;48.154;17.126;2024-01-15T00:17:03;4.50;61.80
50738;DHT22;36703;48.154;17.126;2024-01-15T00:21:05;4.50;61.40
50738;DHT22;36703;48.154;17.126;2024-01-15T00:25:06;4.50;61.10
50738;DHT22;36703;48.154;17.126;2024-01-15T00:29:08;4.60;60.80
50738;DHT22;36703;48.154;17.126;2024-01-15T00:33:09;4.70;60.50
50738;DHT22;36703;48.154;17.126;2024-01-15T00:37:13;4.70;60.50
50738;DHT22;36703;48.154;17.126;2024-01-15T00:41:14;4.70;60.70
50738;DHT22;36703;48.154;17.126;2024-01-15T00:45:16;4.70;60.30
50738;DHT22;36703;48.154;17.126;2024-01-15T00:49:17;4.70;60.40
50738;DHT22;36703;48.154;17.126;2024-01-15T00:53:19;4.80;60.50
50738;DHT22;36703;48.154;17.126;2024-01-15T00:57:21;4.90;60.20
50738;DHT22;36703;48.154;17.126;2024-01-15T01:01:22;4.80;60.10
50738;DHT22;36703;48.154;17.126;2024-01-15T01:05:26;5.30;60.30
50738;DHT22;36703;48.154;17.126;2024-01-15T01:09:28;4.10;59.70
50738;DHT22;36703;48.154;17.126;2024-01-15T01:13:31;4.70;60.20
50738;DHT22;36703;48.154;17.126;2024-01-15T01:17:32;4.70;60.50
50738;DHT22;36703;48.154;17.126;2024-01-15T01:21:34;4.70;60.70
50738;DHT22;36703;48.154;17.126;2024-01-15T01:25:35;4.50;60.70
50738;DHT22;36703;48.154;17.126;2024-01-15T01:29:36;4.40;55.00
50738;DHT22;36703;48.154;17.126;2024-01-15T01:33:38;4.50;55.00
50738;DHT22;36703;48.154;17.126;2024-01-15T01:37:41;4.50;53.90
50738;DHT22;36703;48.154;17.126;2024-01-15T01:41:42;4.40;54.00
50738;DHT22;36703;48.154;17.126;2024-01-15T01:45:44;4.60;54.00
50738;DHT22;36703;48.154;17.126;2024-01-15T01:49:45;4.40;53.90
50738;DHT22;36703;48.154;17.126;2024-01-15T01:53:47;5.00;54.00
50738;DHT22;36703;48.154;17.126;2024-01-15T01:57:49;4.50;53.80
50738;DHT22;36703;48.154;17.126;2024-01-15T02:01:51;4.50;53.70
50738;DHT22;36703;48.154;17.126;2024-01-15T02:05:54;4.40;53.70
50738;DHT22;36703;48.154;17.126;2024-01-15T02:09:56;4.50;53.90
50738;DHT22;36703;48.154;17.126;2024-01-15T02:13:57;5.10;54.30
50738;DHT22;36703;48.154;17.126;2024-01-15T02:17:59;4.30;54.20
50738;DHT22;36703;48.154;17.126;2024-01-15T02:22:05;4.30;54.20
50738;DHT22;36703;48.154;17.126;2024-01-15T02:26:06;4.30;54.30
50738;DHT22;36703;48.154;17.126;2024-01-15T02:30:08;4.20;53.90
50738;DHT22;36703;48.154;17.126;2024-01-15T02:34:11;4.20;53.40
50738;DHT22;36703;48.154;17.126;2024-01-15T02:38:12;4.20;53.30
50738;DHT22;36703;48.154;17.126;2024-01-15T02:42:13;4.10;53.50
50738;DHT22;36703;48.154;17.126;2024-01-15T02:46:15;4.10;53.50
50738;DHT22;36703;48.154;17.126;2024-01-15T02:50:17;4.10;53.60
50738;DHT22;36703;48.154;17.126;2024-01-15T02:54:18;4.00;54.30
50738;DHT22;36703;48.154;17.126;2024-01-15T02:58:20;4.10;53.80
50738;DHT22;36703;48.154;17.126;2024-01-15T03:02:22;4.20;53.50
50738;DHT22;36703;48.154;17.126;2024-01-15T03:06:24;4.40;53.60
50738;DHT22;36703;48.154;17.126;2024-01-15T03:10:25;4.30;53.50
50738;DHT22;36703;48.154;17.126;2024-01-15T03:14:26;4.40;53.50
50738;DHT22;36703;48.154;17.126;2024-01-15T03:18:28;4.40;53.30
50738;DHT22;36703;48.154;17.126;2024-01-15T03:22:30;5.00;53.60
50738;DHT22;36703;48.154;17.126;2024-01-15T03:26:32;4.40;53.40
50738;DHT22;36703;48.154;17.126;2024-01-15T03:30:33;4.50;53.50
50738;DHT22;36703;48.154;17.126;2024-01-15T03:34:34;4.70;53.70
50738;DHT22;36703;48.154;17.126;2024-01-15T03:38:39;4.30;53.70
50738;DHT22;36703;48.154;17.126;2024-01-15T03:42:42;4.10;53.60
50738;DHT22;36703;48.154;17.126;2024-01-15T03:46:43;4.00;54.00
50738;DHT22;36703;48.154;17.126;2024-01-15T03:50:44;3.70;54.70
50738;DHT22;36703;48.154;17.126;2024-01-15T03:54:46;3.90;56.30
50738;DHT22;36703;48.154;17.126;2024-01-15T03:58:47;3.90;56.80
50738;DHT22;36703;48.154;17.126;2024-01-15T04:02:48;3.80;56.80
50738;DHT22;36703;48.154;17.126;2024-01-15T04:06:50;3.80;65.20
50738;DHT22;36703;48.154;17.126;2024-01-15T04:10:51;3.70;66.20
50738;DHT22;36703;48.154;17.126;2024-01-15T04:14:52;3.70;67.70
50738;DHT22;36703;48.154;17.126;2024-01-15T04:18:54;3.80;69.90
50738;DHT22;36703;48.154;17.126;2024-01-15T04:22:55;3.80;69.70
50738;DHT22;36703;48.154;17.126;2024-01-15T04:26:56;3.90;69.40
50738;DHT22;36703;48.154;17.126;2024-01-15T04:30:58;3.90;68.80
50738;DHT22;36703;48.154;17.126;2024-01-15T04:34:59;4.10;67.80
50738;DHT22;36703;48.154;17.126;2024-01-15T04:39:00;4.30;67.20
50738;DHT22;36703;48.154;17.126;2024-01-15T04:43:02;4.60;67.20
50738;DHT22;36703;48.154;17.126;2024-01-15T04:47:03;4.60;66.50
50738;DHT22;36703;48.154;17.126;2024-01-15T04:51:05;4.80;66.10
50738;DHT22;36703;48.154;17.126;2024-01-15T04:55:07;4.90;65.50
50738;DHT22;36703;48.154;17.126;2024-01-15T04:59:08;5.00;65.20
50738;DHT22;36703;48.154;17.126;2024-01-15T05:03:10;5.00;65.00
50738;DHT22;36703;48.154;17.126;2024-01-15T05:07:11;5.10;64.70
50738;DHT22;36703;48.154;17.126;2024-01-15T05:11:12;5.10;63.90
50738;DHT22;36703;48.154;17.126;2024-01-15T05:15:14;5.10;64.50
50738;DHT22;36703;48.154;17.126;2024-01-15T05:19:15;5.10;64.40
50738;DHT22;36703;48.154;17.126;2024-01-15T05:23:16;5.20;64.60
50738;DHT22;36703;48.154;17.126;2024-01-15T05:27:18;5.30;64.60
50738;DHT22;36703;48.154;17.126;2024-01-15T05:31:19;5.20;64.40
50738;DHT22;36703;48.154;17.126;2024-01-15T05:35:20;5.30;64.70
50738;DHT22;36703;48.154;17.126;2024-01-15T05:39:22;5.30;64.70
50738;DHT22;36703;48.154;17.126;2024-01-15T05:43:23;5.30;64.80
50738;DHT22;36703;48.154;17.126;2024-01-15T05:47:24;5.30;64.90
50738;DHT22;36703;48.154;17.126;2024-01-15T05:51:26;5.30;65.20
50738;DHT22;36703;48.154;17.126;2024-01-15T05:55:27;5.50;65.10
50738;DHT22;36703;48.154;17.126;2024-01-15T05:59:28;5.30;65.00
50738;DHT22;36703;48.154;17.126;2024-01-15T06:03:33;5.20;65.10
50738;DHT22;36703;48.154;17.126;2024-01-15T06:07:34;5.50;65.10
50738;DHT22;36703;48.154;17.126;2024-01-15T06:11:37;4.90;64.60
50738;DHT22;36703;48.154;17.126;2024-01-15T06:15:38;5.30;65.10
50738;DHT22;36703;48.154;17.126;2024-01-15T06:19:39;5.50;65.00
50738;DHT22;36703;48.154;17.126;2024-01-15T06:23:41;5.10;63.70
50738;DHT22;36703;48.154;17.126;2024-01-15T06:27:42;5.40;64.80
50738;DHT22;36703;48.154;17.126;2024-01-15T06:31:43;5.30;64.50
50738;DHT22;36703;48.154;17.126;2024-01-15T06:35:45;5.10;64.10
50738;DHT22;36703;48.154;17.126;2024-01-15T06:39:46;5.20;64.30
50738;DHT22;36703;48.154;17.126;2024-01-15T06:43:48;5.10;64.00
50738;DHT22;36703;48.154;17.126;2024-01-15T06:47:49;5.20;63.80
50738;DHT22;36703;48.154;17.126;2024-01-15T06:51:50;5.40;63.90
50738;DHT22;36703;48.154;17.126;2024-01-15T06:55:52;5.10;64.00
50738;DHT22;36703;48.154;17.126;2024-01-15T06:59:53;5.20;63.80
50738;DHT22;36703;48.154;17.126;2024-01-15T07:03:54;5.10;62.80
50738;DHT22;36703;48.154;17.126;2024-01-15T07:07:56;5.20;63.90
50738;DHT22;36703;48.154;17.126;2024-01-15T07:11:57;5.30;63.80
50738;DHT22;36703;48.154;17.126;2024-01-15T07:15:59;5.30;63.90
50738;DHT22;36703;48.154;17.126;2024-01-15T07:20:00;5.40;64.00
50738;DHT22;36703;48.154;17.126;2024-01-15T07:24:02;5.40;63.90
50738;DHT22;36703;48.154;17.126;2024-01-15T07:28:04;5.50;63.90
50738;DHT22;36703;48.154;17.126;2024-01-15T07:32:05;5.70;63.60
50738;DHT22;36703;48.154;17.126;2024-01-15T07:36:08;5.90;63.70
50738;DHT22;36703;48.154;17.126;2024-01-15T07:40:10;6.00;63.50
50738;DHT22;36703;48.154;17.126;2024-01-15T07:44:11;6.10;63.10
50738;DHT22;36703;48.154;17.126;2024-01-15T07:48:13;5.80;63.10
50738;DHT22;36703;48.154;17.126;2024-01-15T07:52:15;6.20;63.10
50738;DHT22;36703;48.154;17.126;2024-01-15T07:56:16;6.10;62.90
50738;DHT22;36703;48.154;17.126;2024-01-15T08:00:17;6.10;63.10
50738;DHT22;36703;48.154;17.126;2024-01-15T08:04:19;6.00;63.20
50738;DHT22;36703;48.154;17.126;2024-01-15T08:08:21;6.10;63.00
50738;DHT22;36703;48.154;17.126;2024-01-15T08:12:22;6.10;63.30
50738;DHT22;36703;48.154;17.126;2024-01-15T08:16:23;6.30;63.50
50738;DHT22;36703;48.154;17.126;2024-01-15T08:20:26;6.00;63.10
50738;DHT22;36703;48.154;17.126;2024-01-15T08:24:27;6.10;63.10
50738;DHT22;36703;48.154;17.126;2024-01-15T08:28:29;6.20;63.20
50738;DHT22;36703;48.154;17.126;2024-01-15T08:32:31;6.30;62.90
50738;DHT22;36703;48.154;17.126;2024-01-15T08:36:32;6.30;63.10
50738;DHT22;36703;48.154;17.126;2024-01-15T08:40:36;6.40;62.60
50738;DHT22;36703;48.154;17.126;2024-01-15T08:44:37;6.50;62.50
50738;DHT22;36703;48.154;17.126;2024-01-15T08:48:41;6.60;62.40
50738;DHT22;36703;48.154;17.126;2024-01-15T08:52:42;6.70;61.50
50738;DHT22;36703;48.154;17.126;2024-01-15T08:56:44;6.90;61.90
50738;DHT22;36703;48.154;17.126;2024-01-15T09:00:45;6.90;61.70
50738;DHT22;36703;48.154;17.126;2024-01-15T09:04:46;7.00;61.80
50738;DHT22;36703;48.154;17.126;2024-01-15T09:08:48;7.10;61.60
50738;DHT22;36703;48.154;17.126;2024-01-15T09:12:50;7.10;62.40
50738;DHT22;36703;48.154;17.126;2024-01-15T09:16:52;7.10;64.30
50738;DHT22;36703;48.154;17.126;2024-01-15T09:20:53;7.20;64.20
50738;DHT22;36703;48.154;17.126;2024-01-15T09:24:55;7.40;60.20
50738;DHT22;36703;48.154;17.126;2024-01-15T09:28:57;7.90;78.00
50738;DHT22;36703;48.154;17.126;2024-01-15T09:32:58;8.10;75.20
50738;DHT22;36703;48.154;17.126;2024-01-15T09:37:00;8.30;60.10
50738;DHT22;36703;48.154;17.126;2024-01-15T09:41:01;8.40;53.90
50738;DHT22;36703;48.154;17.126;2024-01-15T09:45:02;8.60;53.50
50738;DHT22;36703;48.154;17.126;2024-01-15T09:49:04;8.50;53.10
50738;DHT22;36703;48.154;17.126;2024-01-15T09:53:06;8.50;53.20
50738;DHT22;36703;48.154;17.126;2024-01-15T09:57:07;8.50;52.80
50738;DHT22;36703;48.154;17.126;2024-01-15T10:01:09;8.60;52.30
50738;DHT22;36703;48.154;17.126;2024-01-15T10:05:10;8.70;51.90
50738;DHT22;36703;48.154;17.126;2024-01-15T10:09:12;8.90;51.80
50738;DHT22;36703;48.154;17.126;2024-01-15T10:13:15;9.10;58.30
50738;DHT22;36703;48.154;17.126;2024-01-15T10:17:16;9.60;53.30
50738;DHT22;36703;48.154;17.126;2024-01-15T10:21:18;10.00;48.00
50738;DHT22;36703;48.154;17.126;2024-01-15T10:25:20;10.40;63.00
50738;DHT22;36703;48.154;17.126;2024-01-15T10:29:26;10.60;62.30
50738;DHT22;36703;48.154;17.126;2024-01-15T10:33:27;10.60;47.90
50738;DHT22;36703;48.154;17.126;2024-01-15T10:37:32;11.10;65.50
50738;DHT22;36703;48.154;17.126;2024-01-15T10:41:34;11.10;64.00
50738;DHT22;36703;48.154;17.126;2024-01-15T10:49:37;11.50;69.40
50738;DHT22;36703;48.154;17.126;2024-01-15T10:53:39;11.70;59.60
50738;DHT22;36703;48.154;17.126;2024-01-15T10:57:41;11.70;66.50
50738;DHT22;36703;48.154;17.126;2024-01-15T11:01:43;11.60;65.70
50738;DHT22;36703;48.154;17.126;2024-01-15T11:05:45;11.70;65.30
50738;DHT22;36703;48.154;17.126;2024-01-15T11:09:46;11.60;64.70
50738;DHT22;36703;48.154;17.126;2024-01-15T11:18:00;12.10;66.80
50738;DHT22;36703;48.154;17.126;2024-01-15T11:22:02;12.40;49.50
50738;DHT22;36703;48.154;17.126;2024-01-15T11:26:03;12.50;49.30
50738;DHT22;36703;48.154;17.126;2024-01-15T11:30:27;12.60;49.90
50738;DHT22;36703;48.154;17.126;2024-01-15T11:38:55;13.00;44.30
50738;DHT22;36703;48.154;17.126;2024-01-15T11:42:57;13.20;40.70
50738;DHT22;36703;48.154;17.126;2024-01-15T11:47:00;13.00;40.00
50738;DHT22;36703;48.154;17.126;2024-01-15T11:51:05;13.20;36.90
50738;DHT22;36703;48.154;17.126;2024-01-15T11:55:14;13.20;36.20
50738;DHT22;36703;48.154;17.126;2024-01-15T11:59:17;13.20;36.10
50738;DHT22;36703;48.154;17.126;2024-01-15T12:03:22;13.20;36.50
50738;DHT22;36703;48.154;17.126;2024-01-15T12:07:23;13.00;35.20
50738;DHT22;36703;48.154;17.126;2024-01-15T12:11:25;12.50;35.30
50738;DHT22;36703;48.154;17.126;2024-01-15T12:15:28;12.70;35.30
50738;DHT22;36703;48.154;17.126;2024-01-15T12:19:30;13.10;34.70
50738;DHT22;36703;48.154;17.126;2024-01-15T12:23:31;13.40;34.10
50738;DHT22;36703;48.154;17.126;2024-01-15T12:27:34;13.60;33.50
50738;DHT22;36703;48.154;17.126;2024-01-15T12:31:35;13.80;33.30
50738;DHT22;36703;48.154;17.126;2024-01-15T12:35:37;13.80;33.00
50738;DHT22;36703;48.154;17.126;2024-01-15T12:39:38;13.80;32.90
50738;DHT22;36703;48.154;17.126;2024-01-15T12:43:39;13.70;32.40
50738;DHT22;36703;48.154;17.126;2024-01-15T12:47:41;13.60;32.60
50738;DHT22;36703;48.154;17.126;2024-01-15T12:51:43;13.70;32.70
50738;DHT22;36703;48.154;17.126;2024-01-15T12:55:44;13.90;32.70
50738;DHT22;36703;48.154;17.126;2024-01-15T12:59:46;14.20;32.70
50738;DHT22;36703;48.154;17.126;2024-01-15T13:03:47;13.80;32.40
50738;DHT22;36703;48.154;17.126;2024-01-15T13:07:49;13.90;32.50
50738;DHT22;36703;48.154;17.126;2024-01-15T13:11:50;14.10;32.40
50738;DHT22;36703;48.154;17.126;2024-01-15T13:15:53;14.30;32.40
50738;DHT22;36703;48.154;17.126;2024-01-15T13:19:54;14.10;31.90
50738;DHT22;36703;48.154;17.126;2024-01-15T13:23:56;13.90;31.80
50738;DHT22;36703;48.154;17.126;2024-01-15T13:27:57;13.70;32.10
50738;DHT22;36703;48.154;17.126;2024-01-15T13:31:58;13.90;32.20
50738;DHT22;36703;48.154;17.126;2024-01-15T13:36:00;13.70;31.80
50738;DHT22;36703;48.154;17.126;2024-01-15T13:40:01;13.50;32.00
50738;DHT22;36703;48.154;17.126;2024-01-15T13:44:04;13.40;32.20
50738;DHT22;36703;48.154;17.126;2024-01-15T13:48:06;13.60;32.40
50738;DHT22;36703;48.154;17.126;2024-01-15T13:52:07;12.90;32.30
50738;DHT22;36703;48.154;17.126;2024-01-15T13:56:08;13.00;32.60
50738;DHT22;36703;48.154;17.126;2024-01-15T14:00:13;13.00;32.80
50738;DHT22;36703;48.154;17.126;2024-01-15T14:04:19;12.90;32.80
50738;DHT22;36703;48.154;17.126;2024-01-15T14:08:20;12.80;33.20
50738;DHT22;36703;48.154;17.126;2024-01-15T14:12:22;12.80;33.20
50738;DHT22;36703;48.154;17.126;2024-01-15T14:16:23;12.90;33.30
50738;DHT22;36703;48.154;17.126;2024-01-15T14:20:25;12.80;33.40
50738;DHT22;36703;48.154;17.126;2024-01-15T14:24:26;12.60;33.40
50738;DHT22;36703;48.154;17.126;2024-01-15T14:28:27;12.50;33.50
50738;DHT22;36703;48.154;17.126;2024-01-15T14:32:29;12.30;33.70
50738;DHT22;36703;48.154;17.126;2024-01-15T14:36:30;12.00;34.00
50738;DHT22;36703;48.154;17.126;2024-01-15T14:40:31;11.70;34.40
50738;DHT22;36703;48.154;17.126;2024-01-15T14:44:33;11.50;34.60
50738;DHT22;36703;48.154;17.126;2024-01-15T14:48:36;11.30;35.00
50738;DHT22;36703;48.154;17.126;2024-01-15T14:52:37;10.90;35.30
50738;DHT22;36703;48.154;17.126;2024-01-15T14:56:38;10.80;35.70
50738;DHT22;36703;48.154;17.126;2024-01-15T15:00:40;10.60;35.80
50738;DHT22;36703;48.154;17.126;2024-01-15T15:04:41;10.50;37.70
50738;DHT22;36703;48.154;17.126;2024-01-15T15:08:42;10.30;36.50
50738;DHT22;36703;48.154;17.126;2024-01-15T15:12:44;10.20;46.00
50738;DHT22;36703;48.154;17.126;2024-01-15T15:16:45;10.00;43.10
50738;DHT22;36703;48.154;17.126;2024-01-15T15:20:47;9.80;44.40
50738;DHT22;36703;48.154;17.126;2024-01-15T15:24:49;9.60;47.30
50738;DHT22;36703;48.154;17.126;2024-01-15T15:28:50;9.50;49.10
50738;DHT22;36703;48.154;17.126;2024-01-15T15:32:52;9.40;46.90
50738;DHT22;36703;48.154;17.126;2024-01-15T15:36:53;9.30;63.10
50738;DHT22;36703;48.154;17.126;2024-01-15T15:40:54;9.20;63.90
50738;DHT22;36703;48.154;17.126;2024-01-15T15:44:56;9.10;61.60
50738;DHT22;36703;48.154;17.126;2024-01-15T15:48:58;9.00;56.00
50738;DHT22;36703;48.154;17.126;2024-01-15T15:52:59;9.10;52.80
50738;DHT22;36703;48.154;17.126;2024-01-15T15:57:02;8.90;52.30
50738;DHT22;36703;48.154;17.126;2024-01-15T16:01:04;8.90;50.60
50738;DHT22;36703;48.154;17.126;2024-01-15T16:05:05;8.80;55.00
50738;DHT22;36703;48.154;17.126;2024-01-15T16:09:10;8.70;54.30
50738;DHT22;36703;48.154;17.126;2024-01-15T16:13:11;8.80;54.10
50738;DHT22;36703;48.154;17.126;2024-01-15T16:17:14;8.60;54.10
50738;DHT22;36703;48.154;17.126;2024-01-15T16:21:16;8.80;54.50
50738;DHT22;36703;48.154;17.126;2024-01-15T16:25:17;8.50;53.90
50738;DHT22;36703;48.154;17.126;2024-01-15T16:29:18;9.00;51.20
50738;DHT22;36703;48.154;17.126;2024-01-15T16:33:20;8.40;54.50
50738;DHT22;36703;48.154;17.126;2024-01-15T16:37:21;8.30;53.10
50738;DHT22;36703;48.154;17.126;2024-01-15T16:41:23;8.30;51.50
50738;DHT22;36703;48.154;17.126;2024-01-15T16:45:24;8.50;51.00
50738;DHT22;36703;48.154;17.126;2024-01-15T16:49:25;8.30;52.10
50738;DHT22;36703;48.154;17.126;2024-01-15T16:53:27;8.20;51.60
50738;DHT22;36703;48.154;17.126;2024-01-15T16:57:29;8.20;49.20
50738;DHT22;36703;48.154;17.126;2024-01-15T17:01:30;8.10;45.80
50738;DHT22;36703;48.154;17.126;2024-01-15T17:05:31;8.20;44.00
50738;DHT22;36703;48.154;17.126;2024-01-15T17:09:33;8.20;44.00
50738;DHT22;36703;48.154;17.126;2024-01-15T17:13:34;8.10;43.90
50738;DHT22;36703;48.154;17.126;2024-01-15T17:17:35;8.00;43.80
50738;DHT22;36703;48.154;17.126;2024-01-15T17:21:37;8.00;43.70
50738;DHT22;36703;48.154;17.126;2024-01-15T17:25:38;8.00;43.90
50738;DHT22;36703;48.154;17.126;2024-01-15T17:29:40;8.20;44.00
50738;DHT22;36703;48.154;17.126;2024-01-15T17:33:41;7.90;43.80
50738;DHT22;36703;48.154;17.126;2024-01-15T17:37:43;8.60;44.10
50738;DHT22;36703;48.154;17.126;2024-01-15T17:41:44;7.90;43.50
50738;DHT22;36703;48.154;17.126;2024-01-15T17:45:46;7.80;43.90
50738;DHT22;36703;48.154;17.126;2024-01-15T17:49:47;8.00;43.50
50738;DHT22;36703;48.154;17.126;2024-01-15T17:53:49;7.80;43.50
50738;DHT22;36703;48.154;17.126;2024-01-15T17:57:50;7.70;41.30
50738;DHT22;36703;48.154;17.126;2024-01-15T18:01:52;7.70;41.50
50738;DHT22;36703;48.154;17.126;2024-01-15T18:05:55;7.70;41.30
50738;DHT22;36703;48.154;17.126;2024-01-15T18:09:56;7.60;41.50
50738;DHT22;36703;48.154;17.126;2024-01-15T18:13:58;7.50;41.20
50738;DHT22;36703;48.154;17.126;2024-01-15T18:18:00;7.60;41.30
50738;DHT22;36703;48.154;17.126;2024-01-15T18:22:01;7.50;41.50
50738;DHT22;36703;48.154;17.126;2024-01-15T18:26:04;7.50;41.50
50738;DHT22;36703;48.154;17.126;2024-01-15T18:30:05;7.40;41.50
50738;DHT22;36703;48.154;17.126;2024-01-15T18:34:07;7.50;41.60
50738;DHT22;36703;48.154;17.126;2024-01-15T18:38:09;7.40;41.60
50738;DHT22;36703;48.154;17.126;2024-01-15T18:42:10;7.40;41.70
50738;DHT22;36703;48.154;17.126;2024-01-15T18:46:11;7.40;41.80
50738;DHT22;36703;48.154;17.126;2024-01-15T18:50:13;7.30;41.80
50738;DHT22;36703;48.154;17.126;2024-01-15T18:54:14;7.40;42.00
50738;DHT22;36703;48.154;17.126;2024-01-15T18:58:15;7.30;42.10
50738;DHT22;36703;48.154;17.126;2024-01-15T19:02:17;7.40;42.20
50738;DHT22;36703;48.154;17.126;2024-01-15T19:06:19;7.30;42.30
50738;DHT22;36703;48.154;17.126;2024-01-15T19:10:20;7.60;42.70
50738;DHT22;36703;48.154;17.126;2024-01-15T19:14:22;7.40;42.40
50738;DHT22;36703;48.154;17.126;2024-01-15T19:18:24;7.30;42.50
50738;DHT22;36703;48.154;17.126;2024-01-15T19:22:28;7.20;42.60
50738;DHT22;36703;48.154;17.126;2024-01-15T19:26:30;7.90;43.00
50738;DHT22;36703;48.154;17.126;2024-01-15T19:30:31;7.30;42.70
50738;DHT22;36703;48.154;17.126;2024-01-15T19:34:33;7.30;42.80
50738;DHT22;36703;48.154;17.126;2024-01-15T19:38:34;7.10;42.80
50738;DHT22;36703;48.154;17.126;2024-01-15T19:42:35;7.20;43.00
50738;DHT22;36703;48.154;17.126;2024-01-15T19:46:37;7.20;43.40
50738;DHT22;36703;48.154;17.126;2024-01-15T19:50:39;7.10;43.20
50738;DHT22;36703;48.154;17.126;2024-01-15T19:54:41;7.10;43.20
50738;DHT22;36703;48.154;17.126;2024-01-15T19:58:43;7.50;43.70
50738;DHT22;36703;48.154;17.126;2024-01-15T20:02:45;7.10;43.30
50738;DHT22;36703;48.154;17.126;2024-01-15T20:06:46;7.90;44.30
50738;DHT22;36703;48.154;17.126;2024-01-15T20:10:48;7.40;44.00
50738;DHT22;36703;48.154;17.126;2024-01-15T20:14:49;7.10;43.70
50738;DHT22;36703;48.154;17.126;2024-01-15T20:18:51;7.60;43.70
50738;DHT22;36703;48.154;17.126;2024-01-15T20:22:53;7.60;43.20
50738;DHT22;36703;48.154;17.126;2024-01-15T20:26:54;7.60;44.10
50738;DHT22;36703;48.154;17.126;2024-01-15T20:30:56;7.10;43.80
50738;DHT22;36703;48.154;17.126;2024-01-15T20:34:57;7.50;44.50
50738;DHT22;36703;48.154;17.126;2024-01-15T20:38:58;7.20;44.20
50738;DHT22;36703;48.154;17.126;2024-01-15T20:43:00;7.50;44.30
50738;DHT22;36703;48.154;17.126;2024-01-15T20:47:01;7.70;44.40
50738;DHT22;36703;48.154;17.126;2024-01-15T20:51:03;7.70;44.30
50738;DHT22;36703;48.154;17.126;2024-01-15T20:55:06;8.20;45.00
50738;DHT22;36703;48.154;17.126;2024-01-15T20:59:07;8.20;45.30
50738;DHT22;36703;48.154;17.126;2024-01-15T21:03:09;8.10;45.20
50738;DHT22;36703;48.154;17.126;2024-01-15T21:07:10;8.00;45.30
50738;DHT22;36703;48.154;17.126;2024-01-15T21:11:12;8.10;45.10
50738;DHT22;36703;48.154;17.126;2024-01-15T21:15:15;7.90;45.10
50738;DHT22;36703;48.154;17.126;2024-01-15T21:19:17;8.20;45.20
50738;DHT22;36703;48.154;17.126;2024-01-15T21:23:18;8.00;45.20
50738;DHT22;36703;48.154;17.126;2024-01-15T21:27:19;7.90;45.40
50738;DHT22;36703;48.154;17.126;2024-01-15T21:31:21;8.80;46.50
50738;DHT22;36703;48.154;17.126;2024-01-15T21:35:22;7.70;45.50
50738;DHT22;36703;48.154;17.126;2024-01-15T21:39:25;7.40;45.10
50738;DHT22;36703;48.154;17.126;2024-01-15T21:43:27;7.60;45.40
50738;DHT22;36703;48.154;17.126;2024-01-15T21:47:28;9.20;46.80
50738;DHT22;36703;48.154;17.126;2024-01-15T21:51:31;7.50;45.90
50738;DHT22;36703;48.154;17.126;2024-01-15T21:55:32;7.40;46.00
50738;DHT22;36703;48.154;17.126;2024-01-15T21:59:34;7.40;46.00
50738;DHT22;36703;48.154;17.126;2024-01-15T22:03:35;7.30;46.00
50738;DHT22;36703;48.154;17.126;2024-01-15T22:07:39;7.30;46.00
50738;DHT22;36703;48.154;17.126;2024-01-15T22:11:41;7.30;46.00
50738;DHT22;36703;48.154;17.126;2024-01-15T22:15:42;7.10;46.00
50738;DHT22;36703;48.154;17.126;2024-01-15T22:19:44;7.30;46.10
50738;DHT22;36703;48.154;17.126;2024-01-15T22:23:47;7.20;46.00
50738;DHT22;36703;48.154;17.126;2024-01-15T22:27:49;7.10;46.00
50738;DHT22;36703;48.154;17.126;2024-01-15T22:31:51;7.20;46.20
50738;DHT22;36703;48.154;17.126;2024-01-15T22:35:53;7.20;46.20
50738;DHT22;36703;48.154;17.126;2024-01-15T22:39:54;7.60;46.40
50738;DHT22;36703;48.154;17.126;2024-01-15T22:43:55;7.10;46.10
50738;DHT22;36703;48.154;17.126;2024-01-15T22:47:57;7.10;46.40
50738;DHT22;36703;48.154;17.126;2024-01-15T22:51:58;7.10;46.00
50738;DHT22;36703;48.154;17.126;2024-01-15T22:56:03;7.30;46.70
50738;DHT22;36703;48.154;17.126;2024-01-15T23:00:05;7.10;45.80
50738;DHT22;36703;48.154;17.126;2024-01-15T23:04:38;7.10;45.90
50738;DHT22;36703;48.154;17.126;2024-01-15T23:08:39;7.40;46.10
50738;DHT22;36703;48.154;17.126;2024-01-15T23:12:41;7.00;45.70
50738;DHT22;36703;48.154;17.126;2024-01-15T23:16:42;6.80;45.60
50738;DHT22;36703;48.154;17.126;2024-01-15T23:20:43;7.00;45.70
50738;DHT22;36703;48.154;17.126;2024-01-15T23:24:45;6.90;45.70
50738;DHT22;36703;48.154;17.126;2024-01-15T23:28:46;6.90;45.70
50738;DHT22;36703;48.154;17.126;2024-01-15T23:32:48;6.90;45.80
50738;DHT22;36703;48.154;17.126;2024-01-15T23:36:49;7.00;46.50
50738;DHT22;36703;48.154;17.126;2024-01-15T23:40:51;6.70;45.80
50738;DHT22;36703;48.154;17.126;2024-01-15T23:44:52;6.90;45.90
50738;DHT22;36703;48.154;17.126;2024-01-15T23:48:54;6.80;46.40
50738;DHT22;36703;48.154;17.126;2024-01-15T23:52:55;6.80;45.80
50738;DHT22;36703;48.154;17.126;2024-01-15T23:56:56;6.80;45.80
